Ever Ursula — 3FCB9 — position and weather

sailwx.info

Track history (hours):
 
Tides and Currents Weather Stations Pressure Air Temp Water Temp Dewpoint Dewpoint Depression Visibility Wind Speed Wind Dir Waves Ship Positions

Ever Ursula

Last reported at 2017-Sep-24 14:25 UTC. Time now 2017-Sep-26 05:57 UTC.
Position N 01°13' E 103°57'.

Type: Ship (hazmat cat D). MMSI: 357737000.

Date/timePositionNaut miles runAvg speedWind from/ knotsBaromVisibWave heightAir tempDewpointWater temp
2017-Sep-24 14:25N 01°13' E 103°57'1 2.9
2017-Sep-24 14:00N 01°13' E 103°56'1 2.9
2017-Sep-24 13:30N 01°12' E 103°55'1 2.8
2017-Sep-24 13:00N 01°12' E 103°54'1 2.2
2017-Sep-24 12:30N 01°11' E 103°53'1 1.6
2017-Sep-24 12:00N 01°11' E 103°52'29 6.0
2017-Sep-24 07:14N 01°17' E 104°20'415.0
2017-Sep-24 06:57N 01°16' E 104°16'715.2
2017-Sep-24 06:30N 01°15' E 104°09'714.8
2017-Sep-24 06:00N 01°14' E 104°02'714.4
2017-Sep-24 05:30N 01°12' E 103°55'510.3
2017-Sep-24 05:01N 01°10' E 103°50'612.2
2017-Sep-24 04:31N 01°07' E 103°45'714.0
2017-Sep-24 04:00N 01°03' E 103°39'713.7
2017-Sep-24 03:30N 01°06' E 103°33'714.3
2017-Sep-24 03:00N 01°10' E 103°27'714.0
2017-Sep-24 02:30N 01°14' E 103°21'814.4
2017-Sep-24 01:57N 01°19' E 103°15'1414.2
2017-Sep-24 00:57N 01°27' E 103°04'2513.5
2017-Sep-23 23:06N 01°40' E 102°42'313.2
2017-Sep-23 22:53N 01°41' E 102°39'  
Track history (hours):
 
Tides and Currents Weather Stations Pressure Air Temp Water Temp Dewpoint Dewpoint Depression Visibility Wind Speed Wind Dir Waves Ship Positions

Ever Ursula

Last reported at 2017-Sep-24 14:25 UTC. Time now 2017-Sep-26 05:57 UTC.
Position N 01°13' E 103°57'.

Type: Ship (hazmat cat D). MMSI: 357737000.

Date/timePositionNaut miles runAvg speedWind from/ knotsBaromVisibWave heightAir tempDewpointWater temp
2017-Sep-24 14:25N 01°13' E 103°57'1 2.9
2017-Sep-24 14:00N 01°13' E 103°56'1 2.9
2017-Sep-24 13:30N 01°12' E 103°55'1 2.8
2017-Sep-24 13:00N 01°12' E 103°54'1 2.2
2017-Sep-24 12:30N 01°11' E 103°53'1 1.6
2017-Sep-24 12:00N 01°11' E 103°52'29 6.0
2017-Sep-24 07:14N 01°17' E 104°20'415.0
2017-Sep-24 06:57N 01°16' E 104°16'715.2
2017-Sep-24 06:30N 01°15' E 104°09'714.8
2017-Sep-24 06:00N 01°14' E 104°02'714.4
2017-Sep-24 05:30N 01°12' E 103°55'510.3
2017-Sep-24 05:01N 01°10' E 103°50'612.2
2017-Sep-24 04:31N 01°07' E 103°45'714.0
2017-Sep-24 04:00N 01°03' E 103°39'713.7
2017-Sep-24 03:30N 01°06' E 103°33'714.3
2017-Sep-24 03:00N 01°10' E 103°27'714.0
2017-Sep-24 02:30N 01°14' E 103°21'814.4
2017-Sep-24 01:57N 01°19' E 103°15'1414.2
2017-Sep-24 00:57N 01°27' E 103°04'2513.5
2017-Sep-23 23:06N 01°40' E 102°42'313.2
2017-Sep-23 22:53N 01°41' E 102°39'  

Dump ship's entire track history